Rossville, Illinois
Current Conditions -  °F | °C
As of 1:15 PM on Tuesday 21 Oct 2014 (Local Time) from KDNV Reporting Station
Overcast Overcast  
Wind Chill: 55°   Ceiling: 4800
Heat Index: 55°   Visibility: 7mi
Dew Point: 40°   Wind: 13mph
Humidity: 58%   Direction: 360°N
Pressure: 30.11"   Gusts: NA
Location:  40.38°N, 87.67°W
Report Text: KDNV 211815Z AUTO 36011KT 7SM SCT040 OVC048 13/05 A3011 RMK AO2 T01250045
Loading
Personal Weather Stations






























Interactive Weather Map
Tropical Storm Tracking
New forecast layout! Learn more

10-Day Weather Forecast

Advertisements
Track Severe Weather on mobile